Ride Results

Kiwarrakk Cup (30-10-2011)
Ride distance: 80.0 km

Outcomes - Kiwarrakk Cup (30-10-2011)
Division No. of Entries Retired / DNE Completed Withdrawn Ineligible V/O Percentage Completed
HW 17 - 14 2 - 1 82.35%
MW 18 - 13 2 - 3 72.22%
LW 21 - 16 2 - 3 76.19%
JN 7 - 7 - - - 100.00%
TR 1 - 1 - - - 100.00%
Totals 64 - 51 6 - 7 79.69%
Results - Kiwarrakk Cup (30-10-2011)
No. Rider Horse Place Time Leg Speeds Total
Km/Hr
H/R bpm
Heavyweight
41 Allan Caslick A'Landell Spirit 1 (BC) 4:06:00 19.5, 19.5 19.51 40, 46, 60 (Avg:53)
1 Thomas Hermann TTH Headliner 2 4:33:00 19.0, 16.3 17.58 35, 44, 56 (Avg:50)
61 Peter Strickland A'Landell Moonraker 3 7:00:00 12.4, 10.5 11.43 32, 40, 48 (Avg:44)
20 Steve Brisbane Danjera Elsabina 4 7:10:00 11.4, 10.9 11.16 35, 42, 54 (Avg:48)
18 Gary Pevy Halimas Esdikarn 4 7:10:00 11.1, 11.2 11.16 35, 43, 43 (Avg:43)
52 Gary Thomas Ben Mariah 6 7:15:00 12.6, 9.7 11.03 36, 43, 54 (Avg:48)
62 Michael Carr Ejen Park Azira Rose 7 8:04:00 10.7, 9.2 9.92 34, 40, 51 (Avg:45)
12 Peter Grelck Fairview Dream Seeker 8 8:13:00 11.4, 8.4 9.74 40, 45, 47 (Avg:46)
65 Ian Dreghorn Mountain Breeze Jack The Ripper 9 8:20:00 12.6, 7.7 9.60 34, 48, 49 (Avg:48)
43 Marita Rifai Tianna 10 8:23:00 12.4, 7.7 9.54 37, 47, 46 (Avg:46)
60 Phil Coleman Cloudburst 11 8:26:00 10.4, 8.6 9.49 38, 52, 54 (Avg:53)
42 Keith Nagle A'Landell Enigma 12 8:31:00 10.9, 8.2 9.39 37, 42, 45 (Avg:43)
9 Lew Hyson Aqaba Brown Dirt Cowboy 13 8:40:00 9.8, 8.6 9.23 39, 50, 46 (Avg:48)
56 Frank Flissinger Ranjen Spotted Feather 14 8:43:00 11.4, 7.6 9.18 38, 50, 58 (Avg:54)
26 Sue Warren Lilonda Sharjah Heart Rate L2 0:00:00 12.4, 9.8 - 35, 43, 72 (Avg:57)
24 Rod Mitchell Aloha Tribal Warrior Withdrawn L1 0:00:00 - - 37, 43 (Avg:43)
6 Terry McMurrrich Fire Phoenix Withdrawn P/R 0:00:00 - - 41
Middleweight
23 Raymond Griffiths Cherox Zafina 1 (BC) 5:36:00 17.0, 12.3 14.29 36, 43, 49 (Avg:46)
17 Tracey Morley Summit Park Alborak 2 6:03:00 14.9, 11.8 13.22 38, 48, 59 (Avg:53)
19 Debbie Pevy Burren-Dah Walter 3 7:10:00 11.1, 11.2 11.16 40, 41, 46 (Avg:43)
22 Lisa Swan Jon De Le Jacklyn 3 7:10:00 11.4, 10.9 11.16 34, 43, 46 (Avg:44)
3 Jennifer Caslick Tarrangower Gameel Ashquar 5 7:41:00 11.3, 9.6 10.41 32, 40, 47 (Avg:43)
64 Alicia Weed Aberlene Park La Det 6 8:07:00 11.0, 8.8 9.86 39, 41, 57 (Avg:49)
29 Sally Griffin Magic Glenn Lumiah 7 8:17:00 11.4, 8.3 9.66 36, 44, 57 (Avg:50)
36 Ruth Van der Wegen Aloha Ameer 8 8:26:00 10.1, 8.9 9.49 34, 41, 48 (Avg:44)
16 Renee Kirk Henley Farm Rafi 9 8:27:00 10.3, 8.7 9.47 31, 34, 42 (Avg:38)
49 Sonya Ruprecht Yahweh-Salih Sir Ibn Gelibene 9 8:27:00 10.1, 8.8 9.47 39, 44, 43 (Avg:43)
44 Jennifer Rogers A'Landell Nikita 11 8:31:00 10.9, 8.2 9.39 37, 49, 53 (Avg:51)
10 Maria Denee-Mannion Ringarah Malik 12 8:40:00 9.8, 8.6 9.23 38, 53, 52 (Avg:52)
14 Renee Jones Amaziah 13 9:18:00 9.0, 8.1 8.60 37, 46, 56 (Avg:51)
46 Tracy Haack Razorback Hot Pepper Lame L2 0:00:00 12.4, 10.5 - 34, 46, 58 (Avg:52)
31 Michele Ladmore Cascade Heart Rate L2 0:00:00 11.3, 9.6 - 40, 48, 76 (Avg:62)
35 Christie Chapman Attallah Esq Jabu Withdrawn L1 0:00:00 - - 33, 46 (Avg:46)
15 Bob Locke Ally Withdrawn L1 0:00:00 - - 37, 42 (Avg:42)
53 Cheryl Strachan Kintamani Sapphire Lame L1 0:00:00 13.7 - 32, 38 (Avg:38)
Lightweight
4 Allix Jones Nioka Park Jag 1 (BC) 4:26:00 19.0, 17.1 18.05 35, 42, 55 (Avg:48)
21 April Newman Jon De Le Jasper 2 6:03:00 14.7, 11.9 13.22 33, 45, 60 (Avg:52)
25 Anne Hills Kerewong Shelfyre 3 6:35:00 14.2, 10.5 12.15 34, 43, 48 (Avg:45)
8 Carol Layton Omani City Smoke 3 6:35:00 13.9, 10.7 12.15 34, 39, 58 (Avg:48)
7 Sue Todd Shakista 3 6:35:00 13.9, 10.7 12.15 33, 45, 60 (Avg:52)
55 Jodi Dewick Wickwood Aesiras 6 7:16:00 11.4, 10.6 11.01 32, 40, 52 (Avg:46)
34 Lyn Dillon Ningadoo Kadette 7 7:39:00 11.2, 9.7 10.46 40, 45, 59 (Avg:52)
37 Brad Dillon Banfield Khamsin 7 7:39:00 11.2, 9.7 10.46 42, 48, 56 (Avg:52)
2 Leanne Hook Chemical Ali 9 7:41:00 11.3, 9.6 10.41 36, 39, 48 (Avg:43)
28 Karen Anderson Rachem Heart 'N' Soul 10 7:58:00 11.4, 8.9 10.04 38, 42, 54 (Avg:48)
32 Jade Hodson Rush Creek Gift 10 7:58:00 11.4, 8.9 10.04 39, 49, 49 (Avg:49)
38 Renee Schneider Badia Just Rosie 10 7:58:00 10.8, 9.3 10.04 43, 40, 43 (Avg:41)
11 Jillian Grelck Bobby Dazzler 13 8:13:00 11.4, 8.4 9.74 32, 46, 58 (Avg:52)
59 Ros Ryan Rainbows Reach Scout 14 8:26:00 10.4, 8.6 9.49 34, 36, 47 (Avg:41)
40 Lydia Thomson Nalla Shakla s Elite 15 8:31:00 10.9, 8.2 9.39 40, 54, 49 (Avg:51)
13 Felicity Baird Ja-Rob Moonlight N Roses 16 9:18:00 9.0, 8.1 8.60 35, 39, 40 (Avg:39)
51 Elaine Kirby Excessabelle Heart Rate L2 0:00:00 19.5, 19.8 - 30, 39, 68 (Avg:53)
63 Margaret McMurray Orabanda Elusive Fashn Heart Rate L2 0:00:00 10.7, 9.2 - 31, 49, 67 (Avg:58)
50 Frances Mudford Summer Hill Belle Lame L2 0:00:00 10.1, 8.8 - 39, 46, 51 (Avg:48)
57 Belle Bollard Bondale Brown Withdrawn L1 0:00:00 - - 37, 42 (Avg:42)
5 Abby McMurrich Follydown Bint Fern Withdrawn P/R 0:00:00 - - 36
Junior
47 Shannen Thorsby Margjon Montgomery 1 (BC) 7:09:00 11.4, 10.9 11.19 38, 44, 57 (Avg:50)
33 Mia Bodewes Tallawarra Spy 2 7:14:00 12.3, 9.9 11.06 40, 46, 60 (Avg:53)
27 Tayla Warren Warren Park Kiara 2 7:14:00 12.3, 9.9 11.06 36, 46, 57 (Avg:51)
48 Georgia Curry Macquarie Park Banjo 4 7:21:00 11.4, 10.3 10.88 36, 49, 57 (Avg:53)
45 Shantel Nagle Conderosa Silver Shah 5 7:51:00 11.4, 9.1 10.19 36, 44, 55 (Avg:49)
39 Cybele Coddington Digger 6 8:31:00 10.9, 8.2 9.39 38, 52, 60 (Avg:56)
58 Ronnie Thomson Samantha Sanj 7 8:43:00 11.4, 7.6 9.18 36, 44, 48 (Avg:46)
Training
30 Joan Barnes Nevershi Velvet 1 9:17:00 11.4, 6.8 8.62 36, 49, 52 (Avg:50)